Time;durP1;ratioP1;P1;durP2;ratioP2;P2;SDS_P1;SDS_P2;PMS_P1;PMS_P2;Temp;Humidity;BMP_temperature;BMP_pressure;BME280_temperature;BME280_humidity;BME280_pressure;Samples;Min_cycle;Max_cycle;Signal;HPM_P1;HPM_P2
2022/05/25 00:01:12;;;;;;;5.03;4.43;;;;;;;13.75;63.52;101158.59;5009160;28;20041;-61
2022/05/25 00:03:40;;;;;;;6.07;4.50;;;;;;;13.80;63.97;101157.78;5009977;28;20037;-62
2022/05/25 00:06:08;;;;;;;8.73;4.90;;;;;;;13.76;63.65;101162.22;5009170;28;20100;-62
2022/05/25 00:08:33;;;;;;;5.57;4.78;;;;;;;13.73;63.82;101157.16;5009702;28;20035;-61
2022/05/25 00:11:01;;;;;;;5.47;4.40;;;;;;;13.68;64.32;101163.53;5011155;28;20470;-61
2022/05/25 00:13:27;;;;;;;6.15;4.90;;;;;;;13.79;64.02;101160.81;5004081;28;20042;-62
2022/05/25 00:15:53;;;;;;;8.07;5.53;;;;;;;13.69;64.21;101162.44;5010564;28;20613;-61
2022/05/25 00:18:18;;;;;;;7.70;4.75;;;;;;;13.70;64.39;101163.25;5011325;28;20037;-62
2022/05/25 00:20:43;;;;;;;7.30;4.97;;;;;;;13.75;63.87;101166.09;5011186;28;20026;-62
2022/05/25 00:23:12;;;;;;;7.28;5.63;;;;;;;13.72;64.49;101166.63;5010497;28;20022;-61
2022/05/25 00:25:39;;;;;;;9.45;5.50;;;;;;;13.65;64.41;101169.66;5011436;28;20069;-61
2022/05/25 00:28:08;;;;;;;8.35;5.50;;;;;;;13.61;64.46;101164.88;5010642;28;20033;-61
2022/05/25 00:30:34;;;;;;;10.95;6.28;;;;;;;13.66;64.58;101176.06;5024709;28;20037;-62
2022/05/25 00:33:01;;;;;;;8.65;5.53;;;;;;;13.59;64.24;101178.22;5030611;28;20032;-61
2022/05/25 00:35:29;;;;;;;7.60;5.90;;;;;;;13.56;64.91;101179.63;5030159;28;20120;-61
2022/05/25 00:37:55;;;;;;;8.93;6.20;;;;;;;13.50;65.16;101170.34;5014404;28;20042;-62
2022/05/25 00:40:27;;;;;;;7.40;6.10;;;;;;;13.50;64.80;101178.72;5011110;28;20030;-61
2022/05/25 00:42:52;;;;;;;5.82;5.22;;;;;;;13.55;64.61;101171.50;5010431;28;20056;-61
2022/05/25 00:45:18;;;;;;;8.70;5.95;;;;;;;13.49;65.11;101174.25;5011317;28;20026;-62
2022/05/25 00:47:47;;;;;;;7.50;6.05;;;;;;;13.49;64.89;101174.25;5010861;28;20064;-62
2022/05/25 00:50:15;;;;;;;7.30;5.55;;;;;;;13.51;64.78;101166.44;5010532;28;20045;-62
2022/05/25 00:52:43;;;;;;;8.40;6.35;;;;;;;13.47;64.65;101179.22;5011749;28;20384;-62
2022/05/25 00:55:13;;;;;;;8.93;6.25;;;;;;;13.39;65.05;101190.88;4999751;28;20434;-62
2022/05/25 00:57:41;;;;;;;9.23;6.25;;;;;;;13.37;65.06;101192.25;5010203;28;20026;-61
2022/05/25 01:00:13;;;;;;;7.72;6.22;;;;;;;13.41;64.82;101191.47;5007231;28;20536;-61
2022/05/25 01:02:47;;;;;;;7.70;6.70;;;;;;;13.43;64.67;101191.19;5031798;28;20508;-62
2022/05/25 01:05:15;;;;;;;7.85;7.05;;;;;;;13.38;65.36;101189.19;5033372;28;20083;-61
2022/05/25 01:08:00;;;;;;;6.85;6.18;;;;;;;13.39;64.94;101199.22;5022774;28;20080;-61
2022/05/25 01:10:44;;;;;;;8.20;6.45;;;;;;;13.42;64.72;101195.94;5012833;28;20030;-61
2022/05/25 01:13:28;;;;;;;8.27;6.47;;;;;;;13.41;64.99;101205.41;5011898;28;21914;-61
2022/05/25 01:16:08;;;;;;;7.63;6.38;;;;;;;13.39;65.20;101195.59;5012240;28;20449;-61
2022/05/25 01:19:04;;;;;;;9.45;6.95;;;;;;;13.38;65.28;101193.94;5011381;28;20030;-62
2022/05/25 01:21:55;;;;;;;11.25;6.80;;;;;;;13.33;65.21;101197.50;5016694;28;20040;-61
2022/05/25 01:24:43;;;;;;;9.52;6.50;;;;;;;13.27;65.41;101196.59;5012292;28;20152;-62
2022/05/25 01:27:31;;;;;;;10.02;6.45;;;;;;;13.33;65.04;101203.09;5022676;28;20096;-61
2022/05/25 01:30:15;;;;;;;8.52;6.28;;;;;;;13.24;65.73;101199.06;4999734;28;20033;-61
2022/05/25 01:33:04;;;;;;;7.80;6.38;;;;;;;13.23;65.23;101197.41;5011369;28;20026;-61
2022/05/25 01:36:07;;;;;;;7.13;6.43;;;;;;;13.23;65.33;101205.75;5010967;28;20048;-62
2022/05/25 01:38:42;;;;;;;8.93;6.85;;;;;;;13.23;65.29;101205.75;4997082;28;20128;-61
2022/05/25 01:41:23;;;;;;;7.45;6.45;;;;;;;13.23;65.24;101197.41;5007429;28;20046;-62
2022/05/25 01:43:57;;;;;;;8.45;6.50;;;;;;;13.18;65.36;101200.94;5012957;28;20044;-61
2022/05/25 01:46:27;;;;;;;9.02;6.90;;;;;;;13.17;65.41;101204.84;5011282;28;20026;-62
2022/05/25 01:48:55;;;;;;;8.68;6.75;;;;;;;13.13;65.43;101206.47;5012716;28;20116;-63
2022/05/25 01:51:43;;;;;;;8.05;6.88;;;;;;;13.19;65.08;101208.19;5014973;28;20149;-62
2022/05/25 01:54:14;;;;;;;7.63;6.93;;;;;;;13.15;65.14;101211.78;5018320;28;20553;-61
2022/05/25 01:56:43;;;;;;;8.73;6.88;;;;;;;13.14;65.21;101210.94;5012859;28;20149;-62
2022/05/25 01:59:12;;;;;;;10.45;7.30;;;;;;;13.09;65.72;101210.03;5012568;28;20036;-62
2022/05/25 02:01:47;;;;;;;11.10;7.00;;;;;;;13.10;65.58;101212.56;5011044;28;20038;-61
2022/05/25 02:04:22;;;;;;;8.45;6.45;;;;;;;13.02;65.50;101207.44;5012012;28;20389;-61
2022/05/25 02:06:53;;;;;;;7.95;7.25;;;;;;;13.05;65.34;101208.84;5009397;28;20462;-61
2022/05/25 02:09:28;;;;;;;9.93;6.85;;;;;;;13.03;65.66;101211.91;4997213;28;20377;-61
2022/05/25 02:12:12;;;;;;;9.68;7.00;;;;;;;13.08;65.15;101211.97;5010294;28;20794;-61
2022/05/25 02:15:02;;;;;;;8.57;7.28;;;;;;;13.05;65.53;101214.44;5012165;28;20037;-61
2022/05/25 02:17:53;;;;;;;11.93;6.80;;;;;;;13.14;65.26;101212.88;5012686;28;20035;-61
2022/05/25 02:21:03;;;;;;;7.38;6.65;;;;;;;13.19;64.46;101212.94;5012643;28;20025;-61
2022/05/25 02:23:42;;;;;;;8.73;6.90;;;;;;;13.03;65.35;101212.75;4984638;28;20037;-61
2022/05/25 02:26:28;;;;;;;9.00;6.95;;;;;;;12.98;65.44;101215.50;5012167;28;20032;-61
2022/05/25 02:29:11;;;;;;;7.97;7.22;;;;;;;13.05;65.49;101214.44;5011852;28;20084;-61
2022/05/25 02:31:50;;;;;;;8.25;6.90;;;;;;;12.93;65.34;101218.22;5012598;28;20048;-61
2022/05/25 02:34:20;;;;;;;9.00;7.00;;;;;;;12.92;65.34;101226.81;5011671;28;20545;-61
2022/05/25 02:36:47;;;;;;;9.48;6.38;;;;;;;12.92;65.17;101224.88;5011664;28;20034;-61
2022/05/25 02:39:13;;;;;;;7.90;6.60;;;;;;;12.90;65.36;101229.88;5012050;28;20095;-61
2022/05/25 02:41:50;;;;;;;7.70;6.63;;;;;;;12.90;65.27;101226.25;5021121;28;20034;-61
2022/05/25 02:44:15;;;;;;;9.65;6.18;;;;;;;12.93;65.02;101231.28;5032011;28;20029;-61
2022/05/25 02:46:41;;;;;;;9.52;6.35;;;;;;;12.89;64.90;101231.00;5031722;28;20103;-61
2022/05/25 02:49:06;;;;;;;11.07;6.97;;;;;;;12.88;65.08;101231.22;5031213;28;20037;-61
2022/05/25 02:51:31;;;;;;;7.85;6.05;;;;;;;12.85;64.94;101228.97;5031648;28;20017;-61
2022/05/25 02:53:57;;;;;;;12.95;6.30;;;;;;;12.84;64.93;101236.47;5026726;28;20029;-61
2022/05/25 02:56:22;;;;;;;6.82;6.00;;;;;;;12.87;64.76;101233.19;5011072;28;20029;-61
2022/05/25 02:58:47;;;;;;;9.15;5.72;;;;;;;12.86;64.65;101236.25;5011548;28;20029;-61
2022/05/25 03:01:13;;;;;;;8.57;6.22;;;;;;;12.80;65.04;101243.66;5012057;28;20026;-61
2022/05/25 03:03:38;;;;;;;6.85;5.63;;;;;;;12.80;65.04;101246.44;5010115;28;20072;-61
2022/05/25 03:06:05;;;;;;;7.60;5.97;;;;;;;12.69;64.95;101242.72;4992212;28;20482;-61
2022/05/25 03:08:31;;;;;;;7.57;5.50;;;;;;;12.71;65.00;101248.00;4992233;28;20545;-61
2022/05/25 03:10:56;;;;;;;11.40;6.03;;;;;;;12.68;65.04;101248.53;4996185;28;20030;-61
2022/05/25 03:13:22;;;;;;;8.27;5.50;;;;;;;12.73;64.90;101249.44;5010926;28;20488;-61
2022/05/25 03:15:50;;;;;;;7.63;4.95;;;;;;;12.73;64.82;101256.94;5017258;28;20041;-61
2022/05/25 03:18:16;;;;;;;6.22;5.40;;;;;;;12.72;64.61;101258.88;5011032;28;20533;-61
2022/05/25 03:20:41;;;;;;;6.85;5.72;;;;;;;12.70;64.80;101249.97;5009157;28;20069;-61
2022/05/25 03:23:06;;;;;;;6.68;5.22;;;;;;;12.65;64.71;101258.22;5010709;28;20053;-61
2022/05/25 03:25:32;;;;;;;8.57;5.05;;;;;;;12.63;64.89;101254.03;5014080;28;20032;-61
2022/05/25 03:27:57;;;;;;;8.48;5.45;;;;;;;12.64;64.68;101247.34;5011568;28;20049;-61
2022/05/25 03:30:22;;;;;;;5.53;5.00;;;;;;;12.61;64.97;101257.06;5011004;28;20041;-61
2022/05/25 03:32:48;;;;;;;6.15;5.07;;;;;;;12.55;64.74;101254.47;5009688;28;20481;-61
2022/05/25 03:35:14;;;;;;;10.05;5.07;;;;;;;12.61;64.72;101259.00;5009730;28;20032;-61
2022/05/25 03:37:39;;;;;;;7.22;5.60;;;;;;;12.54;64.96;101256.41;5010407;28;20070;-61
2022/05/25 03:40:09;;;;;;;6.47;5.38;;;;;;;12.48;65.46;101265.78;5013632;28;20072;-60
2022/05/25 03:42:35;;;;;;;9.45;5.35;;;;;;;12.52;65.03;101273.38;5009509;28;20058;-61
2022/05/25 03:45:03;;;;;;;6.15;5.28;;;;;;;12.43;65.62;101280.47;5011948;28;20493;-62
2022/05/25 03:47:29;;;;;;;9.35;5.18;;;;;;;12.48;65.14;101276.91;5010358;28;20034;-61
2022/05/25 03:49:54;;;;;;;7.28;5.13;;;;;;;12.49;65.12;101273.88;5010178;28;20030;-61
2022/05/25 03:52:21;;;;;;;9.77;5.68;;;;;;;12.47;65.49;101283.59;5009326;28;20041;-62
2022/05/25 03:54:46;;;;;;;6.75;5.28;;;;;;;12.43;65.61;101287.97;5010792;28;20080;-61
2022/05/25 03:57:12;;;;;;;8.63;5.25;;;;;;;12.38;65.50;101280.41;5013664;28;20033;-61
2022/05/25 03:59:37;;;;;;;6.22;5.43;;;;;;;12.45;65.50;101289.41;5009777;28;20038;-61
2022/05/25 04:02:02;;;;;;;11.93;5.78;;;;;;;12.48;65.48;101285.28;5008025;28;20033;-61
2022/05/25 04:04:28;;;;;;;8.05;5.45;;;;;;;12.41;65.45;101287.38;5009896;28;20038;-61
2022/05/25 04:06:53;;;;;;;9.00;5.70;;;;;;;12.47;65.64;101291.94;5010426;28;20030;-61
2022/05/25 04:09:18;;;;;;;10.10;4.93;;;;;;;12.45;65.39;101296.91;5010461;28;20207;-61
2022/05/25 04:11:44;;;;;;;6.32;4.88;;;;;;;12.47;65.27;101294.72;5010379;28;20033;-61
2022/05/25 04:14:09;;;;;;;8.98;4.97;;;;;;;12.42;65.74;101295.50;5010134;28;20029;-61
2022/05/25 04:16:35;;;;;;;7.30;5.15;;;;;;;12.38;65.54;101290.66;5011339;28;20025;-62
2022/05/25 04:19:00;;;;;;;6.80;5.03;;;;;;;12.42;65.87;101291.88;5012924;28;20030;-61
2022/05/25 04:21:26;;;;;;;9.85;5.35;;;;;;;12.36;65.52;101292.88;5008587;28;20129;-61
2022/05/25 04:23:51;;;;;;;6.70;5.18;;;;;;;12.45;65.85;101303.31;5010394;28;20116;-61
2022/05/25 04:26:17;;;;;;;7.72;5.55;;;;;;;12.42;65.90;101303.00;5009751;28;20034;-61
2022/05/25 04:28:42;;;;;;;8.63;5.20;;;;;;;12.43;65.85;101297.19;5013274;28;20030;-61
2022/05/25 04:31:08;;;;;;;9.35;4.93;;;;;;;12.49;65.55;101300.88;5009477;28;20036;-61
2022/05/25 04:33:35;;;;;;;8.50;5.18;;;;;;;12.43;65.52;101299.97;5010538;28;20041;-61
2022/05/25 04:36:03;;;;;;;6.72;4.88;;;;;;;12.45;65.73;101303.31;5014073;28;20038;-61
2022/05/25 04:38:29;;;;;;;7.68;4.97;;;;;;;12.47;65.80;101301.13;5014489;28;20524;-61
2022/05/25 04:40:54;;;;;;;6.40;4.97;;;;;;;12.50;65.89;101300.63;5013706;28;20037;-61
2022/05/25 04:43:23;;;;;;;9.35;4.57;;;;;;;12.51;65.92;101309.81;5016903;28;20508;-61
2022/05/25 04:45:52;;;;;;;7.53;4.80;;;;;;;12.48;65.92;101307.53;5025474;28;20088;-61
2022/05/25 04:48:21;;;;;;;10.38;4.82;;;;;;;12.50;65.75;101314.56;5013093;28;20026;-62
2022/05/25 04:50:47;;;;;;;10.02;5.57;;;;;;;12.52;65.86;101305.94;5013865;28;20113;-61
2022/05/25 04:53:15;;;;;;;8.15;4.82;;;;;;;12.61;65.57;101311.91;5014355;28;20033;-61
2022/05/25 04:58:30;;;;;;;12.07;4.80;;;;;;;12.62;65.87;101319.19;5013461;28;20512;-62
2022/05/25 05:00:55;;;;;;;7.82;4.80;;;;;;;12.59;65.78;101314.97;5013956;28;20026;-61
2022/05/25 05:03:23;;;;;;;8.30;4.82;;;;;;;12.66;66.14;101323.16;5019508;28;20026;-61
2022/05/25 05:05:49;;;;;;;9.82;4.60;;;;;;;12.65;66.14;101327.00;5020841;28;20416;-61
2022/05/25 05:08:14;;;;;;;7.47;4.60;;;;;;;12.72;65.83;101325.72;5028969;28;20022;-61
2022/05/25 05:10:40;;;;;;;11.98;4.65;;;;;;;12.75;65.90;101327.16;5018464;28;20049;-61
2022/05/25 05:13:07;;;;;;;8.18;4.40;;;;;;;12.74;65.84;101322.72;5021909;28;20025;-62
2022/05/25 05:15:33;;;;;;;5.32;4.53;;;;;;;12.75;66.03;101329.97;5017302;28;20079;-62
2022/05/25 05:17:58;;;;;;;8.13;4.65;;;;;;;12.76;65.85;101324.13;5018945;28;20026;-62
2022/05/25 05:20:24;;;;;;;7.68;4.68;;;;;;;12.83;66.27;101326.72;5012958;28;20034;-62
2022/05/25 05:22:49;;;;;;;10.07;4.85;;;;;;;12.90;65.56;101319.03;5013432;28;20029;-62
2022/05/25 05:25:14;;;;;;;8.93;4.38;;;;;;;12.94;65.56;101320.22;5015908;28;20037;-62
2022/05/25 05:27:40;;;;;;;11.15;4.85;;;;;;;13.04;65.38;101316.69;5015000;28;20532;-61
2022/05/25 05:30:12;;;;;;;6.43;4.80;;;;;;;13.03;65.51;101318.66;5004791;28;20038;-61
2022/05/25 05:32:37;;;;;;;8.57;4.78;;;;;;;13.10;65.93;101314.84;5008591;28;20041;-62
2022/05/25 05:35:03;;;;;;;6.05;4.75;;;;;;;13.13;65.49;101309.59;5010023;28;20026;-61
2022/05/25 05:37:36;;;;;;;6.68;4.43;;;;;;;13.18;65.92;101306.03;5010499;28;21188;-61
2022/05/25 05:40:02;;;;;;;6.38;4.72;;;;;;;13.27;66.04;101308.13;5012336;28;20033;-61
2022/05/25 05:42:28;;;;;;;6.47;4.60;;;;;;;13.33;65.30;101302.63;5011451;28;20037;-61
2022/05/25 05:45:05;;;;;;;7.55;5.00;;;;;;;13.41;65.10;101303.00;5009498;28;20116;-61
2022/05/25 05:47:36;;;;;;;9.85;4.55;;;;;;;13.44;65.83;101309.97;5012269;28;20037;-62
2022/05/25 05:50:05;;;;;;;7.18;4.90;;;;;;;13.49;65.49;101312.84;5010872;28;20508;-61
2022/05/25 05:52:30;;;;;;;8.55;4.65;;;;;;;13.61;65.03;101305.16;5011420;28;20524;-61
2022/05/25 05:54:57;;;;;;;8.25;4.72;;;;;;;13.66;64.81;101301.59;5010433;28;20038;-61
2022/05/25 05:57:22;;;;;;;7.88;4.93;;;;;;;13.69;64.72;101301.06;5012111;28;20021;-61
2022/05/25 05:59:48;;;;;;;9.02;5.22;;;;;;;13.80;64.43;101311.22;5011983;28;20383;-62
2022/05/25 06:02:13;;;;;;;7.72;5.03;;;;;;;13.86;64.05;101317.69;5011638;28;20050;-63
2022/05/25 06:04:41;;;;;;;11.57;4.85;;;;;;;13.92;64.32;101317.47;5016982;28;20499;-61
2022/05/25 06:07:06;;;;;;;10.93;5.35;;;;;;;13.87;64.52;101314.66;5013454;28;20033;-61
2022/05/25 06:09:32;;;;;;;10.02;5.28;;;;;;;13.98;64.40;101319.19;5009940;28;20037;-60
2022/05/25 06:11:57;;;;;;;14.27;5.53;;;;;;;14.07;64.18;101318.72;5009790;28;20061;-62
2022/05/25 06:14:22;;;;;;;10.80;5.32;;;;;;;14.03;64.49;101325.94;5010740;28;20029;-61
2022/05/25 06:19:37;;;;;;;8.88;5.40;;;;;;;14.15;64.15;101340.59;5009852;28;20071;-61
2022/05/25 06:22:05;;;;;;;8.70;5.03;;;;;;;14.27;64.27;101332.88;5005033;28;20448;-61
2022/05/25 06:24:38;;;;;;;9.88;5.32;;;;;;;14.27;64.25;101344.06;5001429;28;20030;-61
2022/05/25 06:27:07;;;;;;;9.52;5.28;;;;;;;14.35;64.04;101343.56;5011041;28;20556;-60
2022/05/25 06:29:37;;;;;;;9.80;5.95;;;;;;;14.39;63.68;101350.28;5007298;28;20453;-61
2022/05/25 06:32:04;;;;;;;11.52;5.53;;;;;;;14.38;63.39;101353.34;5007778;28;20087;-61
2022/05/25 06:34:29;;;;;;;13.38;6.10;;;;;;;14.34;63.29;101353.03;5007232;28;20058;-61
2022/05/25 06:36:55;;;;;;;12.90;6.43;;;;;;;14.23;64.21;101356.84;5004603;28;20060;-61
2022/05/25 06:39:20;;;;;;;9.43;5.47;;;;;;;14.27;64.34;101352.44;5001801;28;20120;-60
2022/05/25 06:41:45;;;;;;;9.95;6.55;;;;;;;14.26;64.31;101353.50;5005019;28;20366;-60
2022/05/25 06:44:11;;;;;;;11.40;7.05;;;;;;;14.26;64.51;101353.50;5008928;28;20491;-61
2022/05/25 06:46:36;;;;;;;10.98;7.82;;;;;;;14.27;65.11;101358.00;5005975;28;20038;-61
2022/05/25 06:49:01;;;;;;;10.70;8.20;;;;;;;14.29;64.62;101363.31;5008546;28;20109;-61
2022/05/25 06:51:30;;;;;;;12.88;7.32;;;;;;;14.35;64.20;101368.69;5008187;28;20026;-61
2022/05/25 06:53:56;;;;;;;17.33;10.63;;;;;;;14.40;64.45;101359.50;5004448;28;20041;-62
2022/05/25 06:56:24;;;;;;;13.82;10.38;;;;;;;14.44;64.21;101357.88;5004765;28;20030;-63
2022/05/25 06:58:53;;;;;;;13.82;9.77;;;;;;;14.43;64.48;101365.41;5007917;28;20068;-62
2022/05/25 07:01:20;;;;;;;15.32;9.88;;;;;;;14.48;64.40;101365.44;4997612;28;20502;-62
2022/05/25 07:03:45;;;;;;;12.95;8.98;;;;;;;14.50;64.12;101359.59;5010979;28;20033;-63
2022/05/25 07:06:13;;;;;;;12.50;9.35;;;;;;;14.51;64.22;101380.03;5008249;28;20591;-62
2022/05/25 07:08:38;;;;;;;12.82;9.25;;;;;;;14.47;63.82;101379.69;5008309;28;20042;-62
2022/05/25 07:11:04;;;;;;;15.73;9.85;;;;;;;14.48;64.23;101382.19;5003695;28;20033;-62
2022/05/25 07:13:30;;;;;;;13.07;9.20;;;;;;;14.52;64.33;101387.28;5009033;28;20497;-63
2022/05/25 07:16:03;;;;;;;12.50;8.55;;;;;;;14.55;63.88;101383.97;5002879;28;20038;-62
2022/05/25 07:18:29;;;;;;;14.93;9.35;;;;;;;14.60;64.08;101400.75;5010729;28;20070;-61
2022/05/25 07:21:12;;;;;;;10.13;7.38;;;;;;;14.61;63.21;101396.84;5006677;28;20143;-61
2022/05/25 07:23:40;;;;;;;13.27;9.68;;;;;;;14.54;64.08;101393.44;5005979;28;20540;-63
2022/05/25 07:26:07;;;;;;;12.77;9.52;;;;;;;14.55;63.73;101401.56;5004825;28;20030;-61
2022/05/25 07:28:35;;;;;;;11.43;8.90;;;;;;;14.68;63.93;101400.28;5006501;28;20824;-61
2022/05/25 07:31:08;;;;;;;11.85;8.77;;;;;;;14.78;63.46;101393.94;5005382;28;20432;-61
2022/05/25 07:33:38;;;;;;;;;;;;;;;14.95;63.27;101401.03;5009517;28;20030;-59
2022/05/25 07:36:05;;;;;;;13.35;9.35;;;;;;;14.94;63.31;101404.94;5009536;28;20377;-60
2022/05/25 07:38:31;;;;;;;14.90;9.23;;;;;;;14.99;63.17;101401.34;5008469;28;20050;-60
2022/05/25 07:40:58;;;;;;;16.50;9.63;;;;;;;14.95;62.68;101403.81;5008880;28;20075;-60
2022/05/25 07:43:27;;;;;;;11.80;8.52;;;;;;;15.08;62.68;101401.66;5009648;28;20041;-60
2022/05/25 07:45:52;;;;;;;14.93;8.88;;;;;;;15.18;63.09;101404.53;5010121;28;20164;-60
2022/05/25 07:48:17;;;;;;;9.82;7.53;;;;;;;15.31;62.58;101406.00;5011054;28;20467;-60
2022/05/25 07:50:43;;;;;;;8.43;6.38;;;;;;;15.39;60.54;101406.31;4998548;28;20546;-60
2022/05/25 07:55:57;;;;;;;13.30;7.28;;;;;;;15.58;61.52;101408.66;5002389;28;20386;-60
2022/05/25 07:58:22;;;;;;;11.07;7.10;;;;;;;15.60;61.55;101406.41;4990082;28;20031;-60
2022/05/25 08:00:53;;;;;;;12.48;6.88;;;;;;;15.72;62.17;101407.09;5005014;28;20049;-60
2022/05/25 08:06:04;;;;;;;11.07;5.80;;;;;;;16.09;61.05;101400.47;5007925;28;20112;-61
2022/05/25 08:08:29;;;;;;;11.77;6.10;;;;;;;16.25;60.46;101392.91;5010461;28;20133;-61
2022/05/25 08:11:01;;;;;;;6.80;5.18;;;;;;;16.21;60.26;101409.44;5013160;28;20101;-60
2022/05/25 08:13:27;;;;;;;6.45;4.95;;;;;;;16.24;60.10;101413.66;5013811;28;20173;-60
2022/05/25 08:15:53;;;;;;;8.00;4.65;;;;;;;16.24;59.29;101408.06;5001964;28;20054;-60
2022/05/25 08:18:19;;;;;;;11.85;5.45;;;;;;;16.26;59.72;101412.25;5014323;28;20076;-60
2022/05/25 08:20:45;;;;;;;12.38;5.85;;;;;;;16.20;59.51;101411.41;5004700;28;20053;-60
2022/05/25 08:23:15;;;;;;;8.40;4.70;;;;;;;16.35;59.85;101406.97;4994872;28;20034;-60
2022/05/25 08:25:41;;;;;;;10.43;4.97;;;;;;;16.43;59.63;101401.63;4994547;28;20522;-60
2022/05/25 08:28:06;;;;;;;6.22;4.55;;;;;;;16.56;59.91;101410.59;4998204;28;20129;-60
2022/05/25 08:30:34;;;;;;;7.40;4.30;;;;;;;16.59;58.58;101404.44;5013444;28;20030;-61
2022/05/25 08:32:59;;;;;;;5.93;4.18;;;;;;;16.62;58.46;101409.47;5014192;28;20033;-61
2022/05/25 08:35:27;;;;;;;6.60;4.05;;;;;;;16.55;58.50;101395.75;5012860;28;20045;-61
2022/05/25 08:37:52;;;;;;;6.07;4.47;;;;;;;16.60;59.14;101387.34;5010513;28;20054;-61
2022/05/25 08:40:20;;;;;;;8.88;4.35;;;;;;;16.72;58.78;101401.06;5012430;28;20080;-60
2022/05/25 08:42:52;;;;;;;9.40;4.55;;;;;;;16.78;58.08;101390.72;5012207;28;20022;-61
2022/05/25 08:45:21;;;;;;;7.57;4.45;;;;;;;16.80;58.09;101396.91;5011313;28;20113;-61
2022/05/25 08:47:52;;;;;;;8.63;4.10;;;;;;;16.71;58.35;101391.00;5011350;28;20081;-61
2022/05/25 08:50:17;;;;;;;5.55;3.40;;;;;;;16.75;58.24;101391.28;5012493;28;20101;-60
2022/05/25 08:52:43;;;;;;;6.80;3.40;;;;;;;16.86;56.95;101388.19;5009658;28;20112;-60
2022/05/25 08:55:29;;;;;;;5.20;2.92;;;;;;;17.11;57.89;101400.50;5012295;28;20108;-60
2022/05/25 08:57:57;;;;;;;5.07;3.22;;;;;;;17.10;57.08;101388.44;5013013;28;20047;-61
2022/05/25 09:00:23;;;;;;;8.23;3.45;;;;;;;17.10;56.48;101387.59;5012906;28;20041;-61
2022/05/25 09:02:56;;;;;;;6.32;3.25;;;;;;;17.16;56.90;101397.66;5012982;28;20030;-60
2022/05/25 09:05:38;;;;;;;4.80;2.75;;;;;;;17.15;55.97;101396.00;5013405;28;20029;-60
2022/05/25 09:08:20;;;;;;;5.93;2.30;;;;;;;17.08;53.60;101401.06;5013402;28;20038;-60
2022/05/25 09:10:51;;;;;;;3.38;2.30;;;;;;;17.06;53.61;101397.72;5003406;28;20057;-61
2022/05/25 09:13:32;;;;;;;5.90;2.45;;;;;;;17.12;54.35;101396.56;5007801;28;20034;-60
2022/05/25 09:16:15;;;;;;;7.03;2.22;;;;;;;17.15;52.93;101399.63;5009792;28;20041;-60
2022/05/25 09:19:09;;;;;;;4.07;2.42;;;;;;;17.14;53.82;101397.97;4999844;28;20029;-60
2022/05/25 09:21:45;;;;;;;4.80;2.28;;;;;;;17.15;54.12;101398.81;5000110;28;20092;-61
2022/05/25 09:24:15;;;;;;;5.90;2.20;;;;;;;17.13;53.39;101399.09;5007515;28;20034;-61
2022/05/25 09:26:42;;;;;;;4.53;1.73;;;;;;;17.20;52.88;101407.19;5012243;28;20113;-62
2022/05/25 09:29:11;;;;;;;4.60;1.63;;;;;;;17.19;52.70;101408.31;5023708;28;20112;-61
2022/05/25 09:31:51;;;;;;;7.88;1.60;;;;;;;17.17;52.39;101416.16;5031861;28;20029;-61
2022/05/25 09:34:26;;;;;;;2.40;1.10;;;;;;;17.10;51.16;101412.84;5013122;28;20072;-61
2022/05/25 09:36:59;;;;;;;3.33;1.40;;;;;;;17.04;51.22;101402.75;5011916;28;20052;-61
2022/05/25 09:39:31;;;;;;;3.47;1.40;;;;;;;16.95;51.48;101416.50;5000356;28;20054;-61
2022/05/25 09:41:59;;;;;;;7.97;1.70;;;;;;;16.93;50.68;101413.97;5012060;28;20033;-61
2022/05/25 09:44:26;;;;;;;2.85;1.30;;;;;;;16.86;50.16;101410.63;5009943;28;20409;-62
2022/05/25 09:47:05;;;;;;;3.47;1.20;;;;;;;16.94;51.95;101409.22;5022172;28;20029;-61
2022/05/25 09:49:44;;;;;;;4.18;1.15;;;;;;;17.17;51.94;101416.16;5011096;28;20082;-61
2022/05/25 09:52:23;;;;;;;1.90;1.10;;;;;;;17.43;51.20;101416.97;5009748;28;20125;-61
2022/05/25 09:55:09;;;;;;;2.83;1.20;;;;;;;17.47;51.08;101412.44;5012608;28;20112;-61
2022/05/25 09:57:38;;;;;;;2.20;1.00;;;;;;;17.54;49.77;101417.78;5010796;28;20028;-62
2022/05/25 10:00:09;;;;;;;2.88;1.00;;;;;;;17.59;49.77;101418.56;5011759;28;20030;-61
2022/05/25 10:02:43;;;;;;;4.43;1.15;;;;;;;17.66;49.49;101426.69;5010357;28;20030;-61
2022/05/25 10:05:23;;;;;;;5.43;1.35;;;;;;;17.75;49.90;101439.03;5011404;28;20027;-61
2022/05/25 10:07:55;;;;;;;3.13;1.17;;;;;;;17.78;49.98;101423.59;5012451;28;20037;-61
2022/05/25 10:10:50;;;;;;;7.20;1.40;;;;;;;17.80;50.11;101427.81;5008441;28;20027;-61
2022/05/25 10:13:40;;;;;;;3.05;1.30;;;;;;;17.80;50.25;101426.94;5001450;28;20128;-61
2022/05/25 10:16:20;;;;;;;4.95;1.80;;;;;;;17.74;50.04;101426.09;5007839;28;20041;-61
2022/05/25 10:18:46;;;;;;;4.15;1.65;;;;;;;17.69;49.40;101420.53;5009027;28;20284;-60
2022/05/25 10:21:23;;;;;;;2.67;1.27;;;;;;;17.85;49.14;101429.75;5008053;28;20375;-60
2022/05/25 10:23:52;;;;;;;2.75;0.90;;;;;;;17.96;48.84;101424.91;5011716;28;20026;-60
2022/05/25 10:26:43;;;;;;;1.98;0.88;;;;;;;17.93;48.18;101431.13;5008429;28;20386;-60
2022/05/25 10:29:11;;;;;;;5.13;0.90;;;;;;;17.78;46.97;101426.41;5011879;28;20048;-61
2022/05/25 10:37:23;;;;;;;5.38;1.35;;;;;;;17.72;47.21;101411.50;5006716;28;21798;-60
2022/05/25 10:39:54;;;;;;;2.00;0.90;;;;;;;17.72;47.39;101408.69;5007783;28;20025;-61
2022/05/25 10:42:25;;;;;;;3.75;0.95;;;;;;;17.72;46.88;101410.66;5002719;28;20108;-60
2022/05/25 10:45:09;;;;;;;3.13;1.10;;;;;;;17.78;47.78;101417.97;5009880;28;20044;-60
2022/05/25 10:47:49;;;;;;;2.75;0.88;;;;;;;17.66;46.72;101413.50;5004711;28;20042;-59
2022/05/25 10:50:32;;;;;;;1.75;0.80;;;;;;;17.67;47.86;101414.34;5006585;28;20033;-60
2022/05/25 10:53:09;;;;;;;2.83;1.00;;;;;;;17.64;46.69;101409.28;5005624;28;20034;-60
2022/05/25 10:55:44;;;;;;;2.55;1.02;;;;;;;17.75;47.24;101410.13;5006414;28;20048;-62
2022/05/25 10:58:09;;;;;;;1.90;0.70;;;;;;;17.93;47.73;101405.84;5008901;28;20065;-61
2022/05/25 11:00:52;;;;;;;1.60;0.80;;;;;;;17.93;46.08;101411.47;5008677;28;20425;-62
2022/05/25 11:03:38;;;;;;;2.42;0.80;;;;;;;17.85;46.42;101410.94;5011362;28;20302;-59
2022/05/25 11:06:31;;;;;;;3.63;0.88;;;;;;;17.80;46.74;101407.28;5011632;28;20080;-59
2022/05/25 11:09:05;;;;;;;2.55;1.15;;;;;;;17.81;46.68;101414.59;5010560;28;20038;-59
2022/05/25 11:11:48;;;;;;;3.03;1.15;;;;;;;17.83;47.97;101413.16;5011015;28;20516;-60
2022/05/25 11:14:32;;;;;;;3.47;1.00;;;;;;;17.79;47.70;101412.06;5011300;28;20481;-59
2022/05/25 11:17:13;;;;;;;4.72;0.98;;;;;;;17.98;48.02;101414.22;5010537;28;20026;-60
2022/05/25 11:20:02;;;;;;;3.35;1.08;;;;;;;18.04;47.92;101413.91;5010653;28;20088;-60
2022/05/25 11:22:58;;;;;;;4.65;1.00;;;;;;;18.03;47.29;101405.75;5009719;28;20033;-60
2022/05/25 11:25:37;;;;;;;4.70;1.05;;;;;;;18.12;46.85;101392.81;5010810;28;20495;-61
2022/05/25 11:28:15;;;;;;;3.88;0.82;;;;;;;18.31;46.70;101396.59;5006878;28;20080;-61
2022/05/25 11:30:47;;;;;;;2.40;0.70;;;;;;;18.44;45.54;101399.88;5009360;28;20065;-60
2022/05/25 11:33:30;;;;;;;;;;;;;;;18.53;47.43;101395.31;5010378;28;20034;-60
2022/05/25 11:36:23;;;;;;;4.53;1.00;;;;;;;18.64;45.75;101389.31;5016738;28;20292;-60
2022/05/25 11:39:02;;;;;;;3.35;0.93;;;;;;;18.73;44.63;101394.31;5029762;28;20391;-61
2022/05/25 11:41:53;;;;;;;5.00;0.93;;;;;;;18.71;45.42;101394.63;5015597;28;20121;-60
2022/05/25 11:44:37;;;;;;;2.42;0.73;;;;;;;18.75;44.48;101390.09;5008936;28;20109;-60
2022/05/25 11:47:35;;;;;;;2.70;0.82;;;;;;;18.78;44.60;101394.28;5010747;28;20113;-60
2022/05/25 11:50:22;;;;;;;4.30;1.10;;;;;;;18.69;45.31;101394.03;5011332;28;20030;-60
2022/05/25 11:53:16;;;;;;;3.08;0.90;;;;;;;18.56;45.03;101380.69;5009022;28;20037;-60
2022/05/25 11:55:50;;;;;;;1.85;0.90;;;;;;;18.60;44.92;101376.97;5016632;28;20017;-60
2022/05/25 11:58:38;;;;;;;2.45;0.90;;;;;;;18.70;45.53;101392.94;5024852;28;20480;-60
2022/05/25 12:01:28;;;;;;;3.38;0.93;;;;;;;18.73;45.49;101388.69;5009716;28;20041;-59